LFRN/RNS METAR and TAF weather

Enter ICAO airport designator
Station Type Date Time Source
LFRN METAR 2024/06/14 21:00 UTC NOAA

LFRN 142100Z AUTO 24011KT 200V270 9999 FEW032 BKN058 OVC100 13/09 Q1006 TEMPO 3000 SHRA BKN012 BKN020CB


Station Type Date Time Source
LFRN Decoded METAR 2024/06/14 21:00 UTC NOAA

Rennes, France (LFRN) 48-04N 001-44W 37M
Jun 14, 2024 - 05:00 PM EDT / 2024.06.14 2100 UTC
Wind: from the WSW (240 degrees) at 13 MPH (11 KT) (direction variable):0
Visibility: greater than 7 mile(s):0
Sky conditions: overcast
Weather: Cumulonimbus clouds observed
Temperature: 55 F (13 C)
Dew Point: 48 F (9 C)
Relative Humidity: 76%
Pressure (altimeter): 29.71 in. Hg (1006 hPa)
ob: LFRN 142100Z AUTO 24011KT 200V270 9999 FEW032 BKN058 OVC100 13/09 Q1006 TEMPO 3000 SHRA BKN012 BKN020CB
cycle: 21

Station Type Date Time Source
LFRN TAF 2024/06/14 18:21 UTC NOAA